createdAt,value
2022-09-13T00:01:12.225Z,98915.72
2022-09-13T00:03:39.626Z,98916.84
2022-09-13T00:06:17.222Z,98930.84
2022-09-13T00:08:44.689Z,98917.34
2022-09-13T00:11:25.924Z,98918.97
2022-09-13T00:13:54.066Z,98913.78
2022-09-13T00:16:25.189Z,98911.53
2022-09-13T00:18:54.042Z,98907.97
2022-09-13T00:21:23.414Z,98911.53
2022-09-13T00:23:54.862Z,98907.94
2022-09-13T00:26:26.264Z,98904.91
2022-09-13T00:28:57.165Z,98908.78
2022-09-13T00:31:27.774Z,98913.16
2022-09-13T00:33:56.067Z,98923.56
2022-09-13T00:36:23.296Z,98928.22
2022-09-13T00:38:50.548Z,98915.59
2022-09-13T00:41:20.143Z,98919.44
2022-09-13T00:43:56.038Z,98912.03
2022-09-13T00:46:28.977Z,98919.69
2022-09-13T00:49:36.222Z,98912.00
2022-09-13T00:52:08.940Z,98907.59
2022-09-13T00:54:43.065Z,98905.94
2022-09-13T00:57:14.428Z,98907.31
2022-09-13T01:00:12.779Z,98897.69
2022-09-13T01:03:12.146Z,98896.28
2022-09-13T01:05:54.379Z,98889.94
2022-09-13T01:08:25.203Z,98898.19
2022-09-13T01:10:54.575Z,98894.88
2022-09-13T01:13:25.595Z,98905.03
2022-09-13T01:15:53.261Z,98906.13
2022-09-13T01:18:21.297Z,98899.81
2022-09-13T01:21:14.103Z,98900.91
2022-09-13T01:24:14.954Z,98898.97
2022-09-13T01:27:00.736Z,98903.09
2022-09-13T01:30:04.739Z,98900.06
2022-09-13T01:32:39.227Z,98897.28
2022-09-13T01:36:07.743Z,98887.13
2022-09-13T01:39:03.590Z,98890.41
2022-09-13T01:41:54.998Z,98895.06
2022-09-13T01:45:04.123Z,98894.81
2022-09-13T01:48:07.605Z,98891.44
2022-09-13T01:50:51.079Z,98889.25
2022-09-13T01:53:58.054Z,98886.75
2022-09-13T01:56:49.809Z,98881.25
2022-09-13T01:59:24.128Z,98882.38
2022-09-13T02:02:20.530Z,98879.31
2022-09-13T02:04:55.146Z,98879.03
2022-09-13T02:07:35.113Z,98878.72
2022-09-13T02:10:12.586Z,98883.38
2022-09-13T02:12:43.804Z,98881.75
2022-09-13T02:15:16.306Z,98878.44
2022-09-13T02:18:10.037Z,98878.44
2022-09-13T02:20:43.863Z,98883.09
2022-09-13T02:23:22.470Z,98872.41
2022-09-13T02:25:51.840Z,98866.09
2022-09-13T02:28:35.815Z,98864.69
2022-09-13T02:31:07.854Z,98864.69
2022-09-13T02:33:47.592Z,98859.47
2022-09-13T02:36:24.518Z,98864.69
2022-09-13T02:39:01.237Z,98860.84
2022-09-13T02:41:51.566Z,98855.63
2022-09-13T02:44:45.247Z,98856.41
2022-09-13T02:47:34.126Z,98854.78
2022-09-13T02:50:23.604Z,98856.94
2022-09-13T02:53:15.594Z,98854.72
2022-09-13T02:56:10.880Z,98852.53
2022-09-13T02:59:03.204Z,98860.94
2022-09-13T03:01:31.172Z,98848.84
2022-09-13T03:03:58.575Z,98861.47
2022-09-13T03:06:28.889Z,98859.56
2022-09-13T03:08:59.647Z,98854.91
2022-09-13T03:11:51.241Z,98856.81
2022-09-13T03:15:02.319Z,98853.78
2022-09-13T03:17:54.751Z,98850.78
2022-09-13T03:21:07.730Z,98851.03
2022-09-13T03:24:06.070Z,98851.31
2022-09-13T03:26:45.277Z,98852.16
2022-09-13T03:29:32.005Z,98847.38
2022-09-13T03:32:24.404Z,98842.47
2022-09-13T03:35:13.080Z,98838.88
2022-09-13T03:38:12.862Z,98852.19
2022-09-13T03:40:45.993Z,98836.88
2022-09-13T03:43:39.361Z,98833.75
2022-09-13T03:46:26.329Z,98826.72
2022-09-13T03:48:54.660Z,98836.88
2022-09-13T03:51:22.600Z,98826.44
2022-09-13T03:54:00.109Z,98826.78
2022-09-13T03:56:27.492Z,98829.03
2022-09-13T03:58:54.790Z,98826.41
2022-09-13T04:01:24.848Z,98834.69
2022-09-13T04:03:56.646Z,98824.38
2022-09-13T04:06:24.401Z,98818.41
2022-09-13T04:08:51.663Z,98821.47
2022-09-13T04:11:21.375Z,98817.94
2022-09-13T04:13:48.706Z,98829.19
2022-09-13T04:16:16.093Z,98824.75
2022-09-13T04:18:43.312Z,98835.69
2022-09-13T04:21:10.628Z,98834.84
2022-09-13T04:23:38.367Z,98841.31
2022-09-13T04:26:06.631Z,98836.97
2022-09-13T04:28:34.067Z,98835.88
2022-09-13T04:31:01.317Z,98838.88
2022-09-13T04:33:28.663Z,98840.28
2022-09-13T04:35:59.769Z,98833.97
2022-09-13T04:38:27.895Z,98836.72
2022-09-13T04:40:56.449Z,98840.59
2022-09-13T04:43:25.321Z,98835.94
2022-09-13T04:45:52.808Z,98831.28
2022-09-13T04:48:20.308Z,98824.72
2022-09-13T04:50:47.670Z,98833.31
2022-09-13T04:53:14.955Z,98836.88
2022-09-13T04:55:42.206Z,98841.53
2022-09-13T04:58:09.559Z,98837.19
2022-09-13T05:00:37.541Z,98836.94
2022-09-13T05:03:04.925Z,98833.38
2022-09-13T05:05:32.925Z,98835.59
2022-09-13T05:08:00.213Z,98829.69
2022-09-13T05:10:27.449Z,98830.28
2022-09-13T05:12:54.642Z,98837.66
2022-09-13T05:15:21.867Z,98834.97
2022-09-13T05:17:49.066Z,98837.19
2022-09-13T05:20:16.419Z,98837.19
2022-09-13T05:22:43.707Z,98834.19
2022-09-13T05:25:10.973Z,98837.44
2022-09-13T05:27:38.212Z,98843.50
2022-09-13T05:30:06.389Z,98840.22
2022-09-13T05:32:33.679Z,98839.97
2022-09-13T05:35:01.015Z,98837.75
2022-09-13T05:37:28.490Z,98839.09
2022-09-13T05:40:12.459Z,98843.59
2022-09-13T05:42:40.091Z,98845.06
2022-09-13T05:45:08.627Z,98847.78
2022-09-13T05:47:35.874Z,98850.28
2022-09-13T05:50:15.414Z,98842.63
2022-09-13T05:52:57.279Z,98843.69
2022-09-13T05:55:24.429Z,98842.38
2022-09-13T05:57:51.693Z,98842.38
2022-09-13T06:00:19.031Z,98845.41
2022-09-13T06:02:46.620Z,98848.44
2022-09-13T06:05:14.691Z,98842.19
2022-09-13T06:07:43.319Z,98849.06
2022-09-13T06:10:12.336Z,98849.09
2022-09-13T06:12:39.707Z,98843.38
2022-09-13T06:15:07.934Z,98845.03
2022-09-13T06:17:35.195Z,98844.50
2022-09-13T06:20:03.554Z,98847.78
2022-09-13T06:22:33.415Z,98844.22
2022-09-13T06:25:01.020Z,98836.00
2022-09-13T06:27:31.397Z,98847.56
2022-09-13T06:29:58.671Z,98854.69
2022-09-13T06:32:26.065Z,98837.41
2022-09-13T06:34:53.362Z,98841.00
2022-09-13T06:37:21.411Z,98838.53
2022-09-13T06:39:48.707Z,98842.13
2022-09-13T06:42:15.963Z,98833.91
2022-09-13T06:44:43.533Z,98846.00
2022-09-13T06:47:11.091Z,98829.25
2022-09-13T06:49:38.338Z,98842.19
2022-09-13T06:52:05.791Z,98834.59
2022-09-13T06:54:33.057Z,98845.25
2022-09-13T06:57:03.074Z,98845.53
2022-09-13T06:59:30.615Z,98842.03
2022-09-13T07:01:57.921Z,98839.28
2022-09-13T07:04:25.237Z,98841.56
2022-09-13T07:06:52.509Z,98839.94
2022-09-13T07:09:22.445Z,98835.59
2022-09-13T07:11:53.214Z,98835.59
2022-09-13T07:14:30.677Z,98834.50
2022-09-13T07:16:58.281Z,98831.75
2022-09-13T07:19:28.472Z,98825.47
2022-09-13T07:21:57.158Z,98821.66
2022-09-13T07:24:25.475Z,98819.75
2022-09-13T07:26:52.802Z,98834.84
2022-09-13T07:29:23.878Z,98827.47
2022-09-13T07:31:54.611Z,98834.34
2022-09-13T07:34:24.839Z,98824.72
2022-09-13T07:36:52.677Z,98844.75
2022-09-13T07:39:22.690Z,98839.56
2022-09-13T07:41:51.550Z,98834.63
2022-09-13T07:44:19.000Z,98831.91
2022-09-13T07:46:46.461Z,98834.13
2022-09-13T07:49:17.440Z,98829.47
2022-09-13T07:51:45.291Z,98827.00
2022-09-13T07:54:18.757Z,98827.03
2022-09-13T07:56:46.407Z,98832.31
2022-09-13T07:59:16.790Z,98829.00
2022-09-13T08:01:47.298Z,98831.78
2022-09-13T08:04:20.268Z,98832.34
2022-09-13T08:06:48.496Z,98828.22
2022-09-13T08:09:17.041Z,98826.59
2022-09-13T08:11:52.912Z,98837.00
2022-09-13T08:14:22.943Z,98829.88
2022-09-13T08:16:50.538Z,98835.69
2022-09-13T08:19:19.610Z,98835.16
2022-09-13T08:21:47.402Z,98840.41
2022-09-13T08:24:21.294Z,98834.41
2022-09-13T08:26:49.245Z,98845.69
2022-09-13T08:29:17.561Z,98840.81
2022-09-13T08:31:45.460Z,98836.69
2022-09-13T08:34:15.270Z,98842.72
2022-09-13T08:36:43.302Z,98835.59
2022-09-13T08:39:13.768Z,98833.13
2022-09-13T08:41:42.443Z,98826.81
2022-09-13T08:44:28.706Z,98821.84
2022-09-13T08:47:40.676Z,98810.31
2022-09-13T08:50:37.651Z,98806.75
2022-09-13T08:53:13.254Z,98814.16
2022-09-13T08:56:04.893Z,98804.53
2022-09-13T08:59:15.399Z,98804.50
2022-09-13T09:02:23.287Z,98790.50
2022-09-13T09:05:05.307Z,98778.91
2022-09-13T09:07:40.559Z,98781.34
2022-09-13T09:10:28.233Z,98763.41
2022-09-13T09:13:05.062Z,98767.81
2022-09-13T09:15:46.329Z,98761.72
2022-09-13T09:18:38.896Z,98772.44
2022-09-13T09:21:15.255Z,98766.31
2022-09-13T09:23:56.621Z,98760.22
2022-09-13T09:26:30.969Z,98755.47
2022-09-13T09:29:24.199Z,98757.91
2022-09-13T09:32:09.803Z,98756.47
2022-09-13T09:34:49.038Z,98754.41
2022-09-13T09:37:25.225Z,98749.13
2022-09-13T09:40:04.953Z,98739.66
2022-09-13T09:42:43.157Z,98743.25
2022-09-13T09:45:28.450Z,98733.53
2022-09-13T09:47:57.769Z,98748.34
2022-09-13T09:50:30.593Z,98754.91
2022-09-13T09:53:10.481Z,98757.63
2022-09-13T09:56:06.785Z,98742.97
2022-09-13T09:58:39.803Z,98735.19
2022-09-13T10:01:30.529Z,98738.72
2022-09-13T10:04:20.283Z,98739.47
2022-09-13T10:06:48.371Z,98727.78
2022-09-13T10:09:18.966Z,98726.09
2022-09-13T10:12:00.203Z,98716.94
2022-09-13T10:14:36.588Z,98724.31
2022-09-13T10:17:15.032Z,98719.28
2022-09-13T10:19:54.231Z,98716.22
2022-09-13T10:22:23.153Z,98715.34
2022-09-13T10:24:50.831Z,98710.88
2022-09-13T10:27:42.325Z,98700.09
2022-09-13T10:30:53.854Z,98708.88
2022-09-13T10:33:30.958Z,98698.59
2022-09-13T10:36:04.418Z,98702.34
2022-09-13T10:38:44.151Z,98696.38
2022-09-13T10:41:24.532Z,98689.06
2022-09-13T10:44:09.707Z,98685.41
2022-09-13T10:46:42.670Z,98694.06
2022-09-13T10:49:45.780Z,98692.81
2022-09-13T10:52:31.301Z,98690.50
2022-09-13T10:55:34.228Z,98688.78
2022-09-13T10:58:06.849Z,98679.50
2022-09-13T11:00:43.350Z,98676.94
2022-09-13T11:03:29.571Z,98663.63
2022-09-13T11:06:30.894Z,98669.16
2022-09-13T11:09:29.017Z,98662.50
2022-09-13T11:12:01.762Z,98654.75
2022-09-13T11:14:56.682Z,98652.47
2022-09-13T11:17:38.750Z,98647.72
2022-09-13T11:20:36.961Z,98643.50
2022-09-13T11:23:23.728Z,98657.25
2022-09-13T11:26:18.891Z,98652.47
2022-09-13T11:29:06.295Z,98655.13
2022-09-13T11:32:28.419Z,98643.13
2022-09-13T11:35:26.928Z,98649.41
2022-09-13T11:38:40.767Z,98647.03
2022-09-13T11:41:58.855Z,98649.72
2022-09-13T11:45:11.988Z,98651.06
2022-09-13T11:47:57.009Z,98654.34
2022-09-13T11:50:38.512Z,98657.31
2022-09-13T11:53:36.249Z,98647.59
2022-09-13T11:56:19.928Z,98643.69
2022-09-13T11:58:56.259Z,98637.31
2022-09-13T12:01:33.432Z,98631.78
2022-09-13T12:04:07.584Z,98629.84
2022-09-13T12:06:40.722Z,98611.09
2022-09-13T12:09:21.661Z,98611.09
2022-09-13T12:12:05.541Z,98607.19
2022-09-13T12:14:52.403Z,98604.00
2022-09-13T12:17:29.801Z,98601.13
2022-09-13T12:20:00.395Z,98588.41
2022-09-13T12:22:34.445Z,98598.56
2022-09-13T12:25:07.723Z,98586.56
2022-09-13T12:28:06.193Z,98585.09
2022-09-13T12:31:28.520Z,98592.00
2022-09-13T12:33:56.266Z,98591.91
2022-09-13T12:37:03.651Z,98581.31
2022-09-13T12:40:04.122Z,98561.94
2022-09-13T12:42:38.838Z,98558.84
2022-09-13T12:45:55.407Z,98557.72
2022-09-13T12:48:39.926Z,98555.75
2022-09-13T12:51:26.489Z,98558.75
2022-09-13T12:54:05.764Z,98553.50
2022-09-13T12:57:09.881Z,98549.91
2022-09-13T12:59:57.815Z,98546.84
2022-09-13T13:02:54.449Z,98548.06
2022-09-13T13:05:32.079Z,98543.56
2022-09-13T13:08:04.758Z,98541.50
2022-09-13T13:10:38.829Z,98529.47
2022-09-13T13:13:13.276Z,98525.72
2022-09-13T13:15:47.804Z,98535.06
2022-09-13T13:18:32.507Z,98540.81
2022-09-13T13:20:59.619Z,98542.13
2022-09-13T13:23:35.708Z,98527.63
2022-09-13T13:26:21.574Z,98523.72
2022-09-13T13:29:03.762Z,98522.78
2022-09-13T13:31:30.952Z,98519.72
2022-09-13T13:34:09.949Z,98515.78
2022-09-13T13:36:45.701Z,98530.16
2022-09-13T13:39:33.685Z,98523.50
2022-09-13T13:42:13.661Z,98528.09
2022-09-13T13:44:43.888Z,98517.31
2022-09-13T13:47:19.785Z,98516.19
2022-09-13T13:50:14.015Z,98519.78
2022-09-13T13:52:55.555Z,98519.78
2022-09-13T13:55:47.221Z,98522.22
2022-09-13T13:58:33.329Z,98521.38
2022-09-13T14:01:03.127Z,98519.97
2022-09-13T14:04:10.191Z,98511.13
2022-09-13T14:07:06.113Z,98505.28
2022-09-13T14:10:03.378Z,98501.38
2022-09-13T14:12:51.251Z,98491.41
2022-09-13T14:15:32.171Z,98487.50
2022-09-13T14:18:57.609Z,98483.59
2022-09-13T14:21:27.265Z,98484.41
2022-09-13T14:24:24.831Z,98491.28
2022-09-13T14:27:03.927Z,98481.31
2022-09-13T14:29:33.468Z,98466.50
2022-09-13T14:32:07.201Z,98472.06
2022-09-13T14:34:38.808Z,98471.41
2022-09-13T14:37:18.160Z,98470.28
2022-09-13T14:40:26.782Z,98460.50
2022-09-13T14:42:56.303Z,98458.53
2022-09-13T14:45:38.649Z,98458.25
2022-09-13T14:48:18.507Z,98454.00
2022-09-13T14:50:56.766Z,98450.09
2022-09-13T14:53:31.551Z,98440.13
2022-09-13T14:56:12.649Z,98435.41
2022-09-13T14:58:47.400Z,98441.25
2022-09-13T15:01:22.933Z,98444.84
2022-09-13T15:03:51.753Z,98442.09
2022-09-13T15:06:31.662Z,98443.72
2022-09-13T15:09:27.731Z,98445.69
2022-09-13T15:12:01.156Z,98436.53
2022-09-13T15:14:39.512Z,98435.72
2022-09-13T15:17:08.472Z,98436.88
2022-09-13T15:20:02.204Z,98433.28
2022-09-13T15:22:33.429Z,98441.59
2022-09-13T15:25:03.043Z,98452.19
2022-09-13T15:27:44.125Z,98454.94
2022-09-13T15:30:25.961Z,98449.41
2022-09-13T15:33:12.164Z,98450.22
2022-09-13T15:35:45.161Z,98456.09
2022-09-13T15:38:26.066Z,98457.25
2022-09-13T15:41:03.898Z,98453.94
2022-09-13T15:43:31.472Z,98453.47
2022-09-13T15:46:01.870Z,98460.97
2022-09-13T15:48:35.857Z,98460.16
2022-09-13T15:51:14.740Z,98458.50
2022-09-13T15:53:45.320Z,98458.03
2022-09-13T15:56:22.693Z,98447.25
2022-09-13T15:58:50.419Z,98448.38
2022-09-13T16:01:18.433Z,98443.94
2022-09-13T16:03:46.019Z,98443.47
2022-09-13T16:06:13.380Z,98442.94
2022-09-13T16:08:41.139Z,98451.25
2022-09-13T16:11:08.602Z,98437.56
2022-09-13T16:13:36.648Z,98438.38
2022-09-13T16:16:05.247Z,98440.66
2022-09-13T16:18:33.080Z,98440.13
2022-09-13T16:21:00.333Z,98438.81
2022-09-13T16:23:27.630Z,98433.09
2022-09-13T16:25:58.268Z,98425.91
2022-09-13T16:28:25.697Z,98426.25
2022-09-13T16:30:54.051Z,98425.72
2022-09-13T16:33:21.442Z,98431.59
2022-09-13T16:35:48.803Z,98424.22
2022-09-13T16:38:16.377Z,98437.28
2022-09-13T16:40:45.259Z,98436.75
2022-09-13T16:43:12.963Z,98434.63
2022-09-13T16:45:42.207Z,98438.03
2022-09-13T16:48:10.293Z,98443.88
2022-09-13T16:50:41.014Z,98445.13
2022-09-13T16:53:09.694Z,98443.00
2022-09-13T16:55:37.251Z,98435.34
2022-09-13T16:58:04.684Z,98437.59
2022-09-13T17:00:32.013Z,98438.75
2022-09-13T17:02:59.521Z,98431.00
2022-09-13T17:05:26.962Z,98438.00
2022-09-13T17:07:54.345Z,98435.88
2022-09-13T17:10:22.448Z,98440.41
2022-09-13T17:12:50.283Z,98441.00
2022-09-13T17:15:18.030Z,98433.34
2022-09-13T17:17:45.363Z,98440.34
2022-09-13T17:20:13.678Z,98434.56
2022-09-13T17:22:41.626Z,98436.34
2022-09-13T17:25:09.814Z,98432.44
2022-09-13T17:27:37.122Z,98441.38
2022-09-13T17:30:06.763Z,98434.72
2022-09-13T17:32:34.109Z,98439.75
2022-09-13T17:35:01.712Z,98435.66
2022-09-13T17:37:29.041Z,98432.91
2022-09-13T17:39:56.346Z,98438.72
2022-09-13T17:42:23.764Z,98441.78
2022-09-13T17:44:51.380Z,98434.13
2022-09-13T17:47:18.646Z,98435.59
2022-09-13T17:49:47.193Z,98435.88
2022-09-13T17:52:14.452Z,98445.31
2022-09-13T17:54:41.658Z,98442.53
2022-09-13T17:57:11.945Z,98438.16
2022-09-13T17:59:39.370Z,98444.00
2022-09-13T18:02:07.331Z,98451.81
2022-09-13T18:04:34.648Z,98447.41
2022-09-13T18:07:01.905Z,98451.28
2022-09-13T18:09:29.104Z,98444.72
2022-09-13T18:11:56.563Z,98445.84
2022-09-13T18:14:26.568Z,98439.84
2022-09-13T18:16:55.951Z,98440.94
2022-09-13T18:19:44.240Z,98434.09
2022-09-13T18:22:11.763Z,98440.13
2022-09-13T18:24:38.968Z,98431.94
2022-09-13T18:27:06.325Z,98448.25
2022-09-13T18:29:33.635Z,98445.78
2022-09-13T18:32:01.091Z,98451.31
2022-09-13T18:34:28.392Z,98446.09
2022-09-13T18:36:55.660Z,98446.59
2022-09-13T18:39:23.426Z,98440.56
2022-09-13T18:41:50.684Z,98422.94
2022-09-13T18:44:19.113Z,98448.97
2022-09-13T18:46:47.465Z,98433.50
2022-09-13T18:49:15.259Z,98442.09
2022-09-13T18:51:44.838Z,98440.47
2022-09-13T18:54:16.217Z,98438.00
2022-09-13T18:56:44.237Z,98441.59
2022-09-13T18:59:11.726Z,98432.28
2022-09-13T19:01:42.535Z,98428.69
2022-09-13T19:04:15.463Z,98435.34
2022-09-13T19:06:46.114Z,98435.16
2022-09-13T19:09:14.615Z,98428.91
2022-09-13T19:11:47.778Z,98435.25
2022-09-13T19:14:27.688Z,98441.94
2022-09-13T19:16:58.081Z,98439.72
2022-09-13T19:19:25.442Z,98436.13
2022-09-13T19:21:52.726Z,98434.63
2022-09-13T19:24:21.228Z,98442.72
2022-09-13T19:26:51.539Z,98438.31
2022-09-13T19:29:22.037Z,98434.22
2022-09-13T19:31:51.544Z,98441.38
2022-09-13T19:34:21.869Z,98428.16
2022-09-13T19:36:52.572Z,98424.91
2022-09-13T19:39:19.950Z,98421.31
2022-09-13T19:41:47.253Z,98420.50
2022-09-13T19:44:15.011Z,98412.50
2022-09-13T19:46:43.693Z,98413.13
2022-09-13T19:49:16.965Z,98405.75
2022-09-13T19:51:50.078Z,98410.56
2022-09-13T19:54:19.469Z,98416.22
2022-09-13T19:56:47.037Z,98406.78
2022-09-13T19:59:17.006Z,98408.72
2022-09-13T20:01:46.652Z,98400.94
2022-09-13T20:04:18.169Z,98405.34
2022-09-13T20:06:49.299Z,98404.53
2022-09-13T20:09:19.184Z,98413.66
2022-09-13T20:11:48.563Z,98415.88
2022-09-13T20:14:18.933Z,98418.34
2022-09-13T20:16:47.481Z,98407.91
2022-09-13T20:22:07.842Z,98414.56
2022-09-13T20:24:35.130Z,98415.69
2022-09-13T20:27:02.399Z,98416.78
2022-09-13T20:29:29.788Z,98404.44
2022-09-13T20:31:57.189Z,98397.53
2022-09-13T20:34:24.379Z,98400.94
2022-09-13T20:36:51.581Z,98405.63
2022-09-13T20:39:18.833Z,98399.63
2022-09-13T20:41:49.355Z,98401.34
2022-09-13T20:44:16.755Z,98385.97
2022-09-13T20:46:44.123Z,98387.81
2022-09-13T20:49:11.935Z,98395.28
2022-09-13T20:51:39.658Z,98394.78
2022-09-13T20:54:08.362Z,98389.53
2022-09-13T20:56:36.274Z,98398.16
2022-09-13T20:59:04.811Z,98400.19
2022-09-13T21:01:33.556Z,98390.25
2022-09-13T21:04:01.747Z,98388.63
2022-09-13T21:06:32.238Z,98396.38
2022-09-13T21:09:00.197Z,98393.72
2022-09-13T21:11:34.841Z,98394.81
2022-09-13T21:14:05.743Z,98398.78
2022-09-13T21:16:37.675Z,98407.16
2022-09-13T21:19:06.249Z,98410.72
2022-09-13T21:21:37.320Z,98419.00
2022-09-13T21:24:08.714Z,98411.03
2022-09-13T21:26:39.831Z,98409.41
2022-09-13T21:29:07.097Z,98409.69
2022-09-13T21:31:34.446Z,98413.91
2022-09-13T21:34:08.634Z,98413.38
2022-09-13T21:36:36.399Z,98420.00
2022-09-13T21:39:05.687Z,98413.16
2022-09-13T21:41:34.006Z,98408.25
2022-09-13T21:44:01.732Z,98408.81
2022-09-13T21:46:35.360Z,98406.38
2022-09-13T21:49:06.866Z,98408.31
2022-09-13T21:51:43.324Z,98412.81
2022-09-13T21:54:14.311Z,98406.75
2022-09-13T21:56:50.167Z,98409.63
2022-09-13T21:59:19.844Z,98397.22
2022-09-13T22:01:53.160Z,98394.75
2022-09-13T22:04:27.397Z,98393.97
2022-09-13T22:06:55.481Z,98396.72
2022-09-13T22:09:27.036Z,98398.66
2022-09-13T22:11:54.905Z,98396.19
2022-09-13T22:14:22.834Z,98394.03
2022-09-13T22:16:52.937Z,98398.44
2022-09-13T22:19:24.864Z,98402.00
2022-09-13T22:21:56.759Z,98396.47
2022-09-13T22:24:26.993Z,98397.28
2022-09-13T22:26:56.585Z,98390.94
2022-09-13T22:29:24.938Z,98389.00
2022-09-13T22:31:53.203Z,98383.50
2022-09-13T22:34:24.197Z,98375.53
2022-09-13T22:36:53.373Z,98388.72
2022-09-13T22:39:20.639Z,98373.28
2022-09-13T22:41:47.921Z,98379.41
2022-09-13T22:44:15.588Z,98391.56
2022-09-13T22:46:45.218Z,98390.72
2022-09-13T22:49:19.289Z,98393.59
2022-09-13T22:51:47.756Z,98390.31
2022-09-13T22:54:16.555Z,98386.44
2022-09-13T22:56:44.360Z,98380.38
2022-09-13T22:59:21.097Z,98378.44
2022-09-13T23:01:49.337Z,98385.91
2022-09-13T23:04:17.287Z,98386.22
2022-09-13T23:06:44.833Z,98390.97
2022-09-13T23:09:17.852Z,98375.03
2022-09-13T23:11:46.289Z,98371.53
2022-09-13T23:14:16.590Z,98375.13
2022-09-13T23:16:50.442Z,98369.88
2022-09-13T23:19:20.365Z,98365.78
2022-09-13T23:21:47.544Z,98371.00
2022-09-13T23:24:18.010Z,98372.41
2022-09-13T23:26:46.725Z,98374.69
2022-09-13T23:29:18.844Z,98362.59
2022-09-13T23:31:47.478Z,98372.22
2022-09-13T23:34:15.775Z,98365.34
2022-09-13T23:36:44.584Z,98363.50
2022-09-13T23:39:18.707Z,98365.44
2022-09-13T23:41:47.906Z,98360.81
2022-09-13T23:44:15.942Z,98364.69
2022-09-13T23:46:44.119Z,98370.75
2022-09-13T23:49:11.684Z,98365.84
2022-09-13T23:51:39.005Z,98367.53
2022-09-13T23:54:06.562Z,98369.50
2022-09-13T23:56:35.033Z,98372.00
2022-09-13T23:59:05.073Z,98376.47
